createdAt,value
2022-07-25T00:03:52.356Z,72.97
2022-07-25T00:08:59.011Z,69.00
2022-07-25T00:14:16.884Z,61.58
2022-07-25T00:19:19.804Z,68.82
2022-07-25T00:24:26.126Z,65.53
2022-07-25T00:29:28.895Z,63.65
2022-07-25T00:34:31.730Z,64.32
2022-07-25T00:39:35.839Z,71.35
2022-07-25T00:44:40.060Z,69.70
2022-07-25T00:49:42.755Z,65.90
2022-07-25T00:54:47.428Z,70.68
2022-07-25T00:59:50.626Z,74.82
2022-07-25T01:04:54.350Z,70.78
2022-07-25T01:09:59.291Z,78.25
2022-07-25T01:15:02.938Z,79.72
2022-07-25T01:20:06.538Z,81.60
2022-07-25T01:25:11.077Z,75.55
2022-07-25T01:30:16.239Z,84.63
2022-07-25T01:35:19.288Z,82.97
2022-07-25T01:40:25.330Z,82.70
2022-07-25T01:45:28.149Z,79.45
2022-07-25T01:50:30.936Z,78.00
2022-07-25T01:55:35.009Z,84.18
2022-07-25T02:00:37.826Z,81.40
2022-07-25T02:05:40.593Z,80.28
2022-07-25T02:10:44.623Z,73.45
2022-07-25T02:15:47.655Z,76.93
2022-07-25T02:20:50.339Z,76.38
2022-07-25T02:25:54.383Z,80.15
2022-07-25T02:30:57.292Z,73.68
2022-07-25T02:36:00.091Z,70.15
2022-07-25T02:41:04.743Z,75.65
2022-07-25T02:46:07.722Z,75.50
2022-07-25T02:51:10.501Z,74.10
2022-07-25T02:56:14.571Z,69.35
2022-07-25T03:01:17.613Z,66.03
2022-07-25T03:06:20.424Z,60.33
2022-07-25T03:11:24.537Z,63.78
2022-07-25T03:16:27.799Z,55.85
2022-07-25T03:21:30.624Z,57.08
2022-07-25T03:26:34.680Z,61.45
2022-07-25T03:31:37.453Z,57.70
2022-07-25T03:36:40.253Z,56.15
2022-07-25T03:41:44.307Z,54.97
2022-07-25T03:46:47.193Z,52.03
2022-07-25T03:51:49.925Z,53.25
2022-07-25T03:56:54.001Z,48.85
2022-07-25T04:01:57.339Z,53.28
2022-07-25T04:07:00.088Z,51.67
2022-07-25T04:12:04.650Z,48.78
2022-07-25T04:17:07.473Z,52.58
2022-07-25T04:22:11.961Z,47.63
2022-07-25T04:27:16.724Z,42.83
2022-07-25T04:32:23.350Z,49.30
2022-07-25T04:37:26.411Z,40.15
2022-07-25T04:42:30.428Z,45.53
2022-07-25T04:47:33.214Z,41.88
2022-07-25T04:52:37.160Z,40.30
2022-07-25T04:57:42.150Z,35.33
2022-07-25T05:02:45.009Z,26.20
2022-07-25T05:07:47.925Z,23.67
2022-07-25T05:12:51.950Z,20.35
2022-07-25T05:17:54.680Z,21.25
2022-07-25T05:22:57.712Z,18.63
2022-07-25T05:28:02.909Z,16.98
2022-07-25T05:33:05.608Z,16.30
2022-07-25T05:38:08.304Z,20.48
2022-07-25T05:43:12.333Z,20.40
2022-07-25T05:48:15.161Z,21.48
2022-07-25T05:53:17.965Z,22.58
2022-07-25T05:58:26.150Z,20.17
2022-07-25T06:03:34.089Z,17.42
2022-07-25T06:08:37.123Z,16.10
2022-07-25T06:13:41.409Z,20.63
2022-07-25T06:18:53.614Z,21.05
2022-07-25T06:24:06.208Z,17.70
2022-07-25T06:29:24.596Z,24.00
2022-07-25T06:34:31.134Z,21.55
2022-07-25T06:39:49.782Z,20.75
2022-07-25T06:45:00.659Z,19.58
2022-07-25T06:50:11.413Z,15.63
2022-07-25T06:55:22.977Z,18.80
2022-07-25T07:00:40.733Z,18.88
2022-07-25T07:05:52.535Z,14.93
2022-07-25T07:10:58.842Z,13.07
2022-07-25T07:16:08.697Z,12.32
2022-07-25T07:21:21.879Z,10.68
2022-07-25T07:26:31.374Z,9.05
2022-07-25T07:31:47.571Z,9.95
2022-07-25T07:36:53.204Z,8.80
2022-07-25T07:42:13.717Z,10.00
2022-07-25T07:52:51.416Z,10.25
2022-07-25T07:58:10.313Z,6.28
2022-07-25T08:03:30.573Z,6.32
2022-07-25T08:08:44.477Z,7.10
2022-07-25T08:14:22.093Z,6.70
2022-07-25T08:19:34.136Z,4.78
2022-07-25T08:25:01.188Z,6.78
2022-07-25T08:30:35.815Z,7.40
2022-07-25T08:36:14.313Z,5.82
2022-07-25T08:41:48.700Z,7.50
2022-07-25T08:47:09.678Z,8.48
2022-07-25T08:52:27.522Z,5.75
2022-07-25T08:57:58.537Z,5.78
2022-07-25T09:03:20.443Z,7.50
2022-07-25T09:08:29.805Z,8.43
2022-07-25T09:13:50.600Z,9.43
2022-07-25T09:37:50.607Z,6.47
2022-07-25T09:48:36.245Z,6.50
2022-07-25T09:54:00.143Z,5.50
2022-07-25T09:59:12.370Z,5.88
2022-07-25T10:04:25.886Z,6.72
2022-07-25T10:10:12.889Z,6.22
2022-07-25T10:15:38.705Z,4.28
2022-07-25T10:21:24.575Z,8.43
2022-07-25T10:26:40.466Z,5.55
2022-07-25T10:32:23.275Z,6.30
2022-07-25T10:37:57.419Z,7.32
2022-07-25T10:43:17.895Z,7.20
2022-07-25T10:49:08.631Z,10.07
2022-07-25T10:54:45.573Z,7.05
2022-07-25T11:00:26.396Z,5.32
2022-07-25T11:12:36.621Z,9.63
2022-07-25T11:47:45.365Z,7.75
2022-07-25T11:53:18.051Z,4.88
2022-07-25T12:09:41.487Z,6.68
2022-07-25T12:20:25.770Z,7.38
2022-07-25T12:25:31.085Z,5.72
2022-07-25T12:30:35.034Z,6.68
2022-07-25T12:35:40.694Z,6.25
2022-07-25T12:40:43.405Z,7.05
2022-07-25T12:45:46.331Z,8.63
2022-07-25T12:50:50.363Z,5.38
2022-07-25T12:55:53.078Z,7.43
2022-07-25T13:01:00.902Z,3.70
2022-07-25T13:06:07.905Z,5.10
2022-07-25T13:11:10.575Z,6.53
2022-07-25T13:16:13.364Z,4.15
2022-07-25T13:21:18.664Z,6.05
2022-07-25T13:26:21.432Z,8.00
2022-07-25T13:31:24.207Z,6.97
2022-07-25T13:36:28.353Z,4.85
2022-07-25T13:41:31.399Z,4.57
2022-07-25T13:46:35.097Z,7.53
2022-07-25T13:51:39.103Z,6.68
2022-07-25T13:56:42.477Z,6.50
2022-07-25T14:01:46.051Z,9.05
2022-07-25T14:06:52.087Z,6.25
2022-07-25T14:11:54.914Z,9.52
2022-07-25T14:16:58.426Z,5.88
2022-07-25T14:22:02.509Z,5.88
2022-07-25T14:27:05.400Z,6.10
2022-07-25T14:32:08.761Z,5.75
2022-07-25T14:37:13.581Z,5.65
2022-07-25T14:42:16.587Z,4.20
2022-07-25T14:47:19.425Z,5.85
2022-07-25T14:52:23.931Z,6.75
2022-07-25T14:57:26.639Z,7.18
2022-07-25T15:02:29.403Z,5.60
2022-07-25T15:07:33.395Z,6.03
2022-07-25T15:12:36.111Z,6.40
2022-07-25T15:17:39.588Z,5.68
2022-07-25T15:22:43.609Z,7.30
2022-07-25T15:27:46.337Z,5.07
2022-07-25T15:32:49.037Z,4.47
2022-07-25T15:37:53.566Z,4.40
2022-07-25T15:42:56.505Z,8.38
2022-07-25T15:48:00.771Z,6.63
2022-07-25T15:53:05.471Z,5.03
2022-07-25T15:58:09.508Z,8.43
2022-07-25T16:03:13.734Z,6.15
2022-07-25T16:08:18.267Z,6.38
2022-07-25T16:13:20.959Z,7.72
2022-07-25T16:18:24.082Z,5.28
2022-07-25T16:23:28.243Z,4.20
2022-07-25T16:28:31.162Z,4.78
2022-07-25T16:33:34.041Z,7.78
2022-07-25T16:38:38.165Z,10.45
2022-07-25T16:43:40.844Z,4.45
2022-07-25T16:48:43.606Z,6.57
2022-07-25T16:53:47.671Z,4.88
2022-07-25T16:58:50.589Z,6.20
2022-07-25T17:03:54.223Z,5.38
2022-07-25T17:08:59.584Z,6.38
2022-07-25T17:14:04.313Z,6.47
2022-07-25T17:19:07.582Z,6.20
2022-07-25T17:24:11.823Z,4.80
2022-07-25T17:29:14.613Z,5.60
2022-07-25T17:34:17.324Z,5.13
2022-07-25T17:39:21.330Z,7.13
2022-07-25T17:44:24.666Z,5.55
2022-07-25T17:49:27.421Z,5.18
2022-07-25T17:54:31.406Z,4.43
2022-07-25T17:59:35.000Z,11.10
2022-07-25T18:04:37.941Z,6.07
2022-07-25T18:09:42.930Z,5.85
2022-07-25T18:14:45.869Z,7.70
2022-07-25T18:19:48.689Z,20.70
2022-07-25T18:24:52.679Z,34.38
2022-07-25T18:29:55.403Z,30.95
2022-07-25T18:34:58.323Z,23.05
2022-07-25T18:40:02.370Z,22.20
2022-07-25T18:45:06.282Z,14.57
2022-07-25T18:50:10.553Z,27.48
2022-07-25T18:55:14.574Z,33.45
2022-07-25T19:00:17.822Z,91.78
2022-07-25T19:05:21.090Z,118.03
2022-07-25T19:10:25.251Z,138.13
2022-07-25T19:15:28.273Z,160.73
2022-07-25T19:20:31.127Z,150.65
2022-07-25T19:25:36.375Z,125.63
2022-07-25T19:30:39.535Z,150.00
2022-07-25T19:35:43.289Z,189.65
2022-07-25T19:40:47.816Z,202.43
2022-07-25T19:45:50.561Z,209.38
2022-07-25T19:50:53.819Z,210.27
2022-07-25T19:55:58.015Z,206.10
2022-07-25T20:01:00.838Z,230.75
2022-07-25T20:06:08.018Z,177.88
2022-07-25T20:11:12.824Z,178.95
2022-07-25T20:16:15.588Z,86.05
2022-07-25T20:21:18.458Z,37.17
2022-07-25T20:26:22.620Z,19.35
2022-07-25T20:31:25.421Z,34.92
2022-07-25T20:36:28.179Z,32.17
2022-07-25T20:41:32.389Z,25.52
2022-07-25T20:46:36.615Z,22.35
2022-07-25T20:51:40.594Z,34.35
2022-07-25T20:56:44.749Z,32.40
2022-07-25T21:01:48.036Z,33.80
2022-07-25T21:06:50.803Z,35.97
2022-07-25T21:11:55.405Z,36.95
2022-07-25T21:16:58.146Z,46.00
2022-07-25T21:22:00.988Z,38.88
2022-07-25T21:27:05.171Z,41.20
2022-07-25T21:32:08.877Z,42.83
2022-07-25T21:37:11.961Z,40.90
2022-07-25T21:42:16.098Z,47.00
2022-07-25T21:47:18.894Z,47.63
2022-07-25T21:52:29.868Z,53.42
2022-07-25T21:57:38.764Z,44.85
2022-07-25T22:02:42.749Z,44.35
2022-07-25T22:07:45.956Z,51.03
2022-07-25T22:12:50.136Z,51.92
2022-07-25T22:17:52.823Z,48.70
2022-07-25T22:22:55.636Z,45.10
2022-07-25T22:27:59.646Z,46.97
2022-07-25T22:33:02.327Z,50.35
2022-07-25T22:38:05.008Z,48.70
2022-07-25T22:43:09.079Z,43.72
2022-07-25T22:48:11.754Z,20.25
2022-07-25T22:53:14.462Z,13.50
2022-07-25T22:58:18.531Z,14.88
2022-07-25T23:03:21.323Z,13.55
2022-07-25T23:08:24.066Z,9.70
2022-07-25T23:13:28.125Z,12.80
2022-07-25T23:18:30.973Z,23.02
2022-07-25T23:23:33.759Z,33.35
2022-07-25T23:28:37.981Z,40.75
2022-07-25T23:33:40.854Z,32.92
2022-07-25T23:38:43.533Z,30.55
2022-07-25T23:43:56.992Z,25.58
2022-07-25T23:49:01.870Z,31.83
2022-07-25T23:54:04.789Z,25.30
2022-07-25T23:59:09.088Z,20.77
